Time;durP1;ratioP1;P1;durP2;ratioP2;P2;SDS_P1;SDS_P2;PMS_P1;PMS_P2;Temp;Humidity;BMP_temperature;BMP_pressure;BME280_temperature;BME280_humidity;BME280_pressure;Samples;Min_cycle;Max_cycle;Signal;HPM_P1;HPM_P2
2021/12/06 00:00:21;;;;;;;19.83;10.38;;;6.30;99.90;;;;;;5039205;28;20017;-80
2021/12/06 00:02:47;;;;;;;20.90;10.85;;;6.30;99.90;;;;;;5038874;28;20032;-79
2021/12/06 00:05:16;;;;;;;19.70;11.02;;;6.30;99.90;;;;;;5039316;28;20503;-79
2021/12/06 00:07:42;;;;;;;21.27;10.63;;;6.30;99.90;;;;;;5040229;28;20021;-80
2021/12/06 00:10:09;;;;;;;18.52;9.23;;;6.30;99.90;;;;;;5058910;28;20101;-79
2021/12/06 00:12:35;;;;;;;21.17;10.35;;;6.30;99.90;;;;;;5066706;28;20093;-80
2021/12/06 00:15:01;;;;;;;17.55;9.82;;;6.30;99.90;;;;;;5045824;28;20056;-78
2021/12/06 00:17:26;;;;;;;19.08;10.57;;;6.30;99.90;;;;;;5045740;28;20070;-80
2021/12/06 00:19:52;;;;;;;19.58;9.63;;;6.30;99.90;;;;;;5043340;28;20021;-79
2021/12/06 00:22:25;;;;;;;22.63;10.50;;;6.30;99.90;;;;;;5043533;28;20031;-80
2021/12/06 00:24:53;;;;;;;20.75;9.93;;;6.30;99.90;;;;;;5043834;28;20142;-79
2021/12/06 00:27:19;;;;;;;21.80;10.98;;;6.30;99.90;;;;;;5039732;28;20025;-79
2021/12/06 00:29:46;;;;;;;21.20;10.82;;;6.30;99.90;;;;;;5038766;28;20116;-80
2021/12/06 00:32:12;;;;;;;18.92;10.82;;;6.30;99.90;;;;;;5055839;28;20028;-80
2021/12/06 00:34:39;;;;;;;19.25;9.95;;;6.30;99.90;;;;;;5037703;28;20100;-79
2021/12/06 00:39:42;;;;;;;17.63;10.55;;;6.30;99.90;;;;;;5055808;28;20489;-80
2021/12/06 00:42:07;;;;;;;23.65;10.63;;;6.30;99.90;;;;;;5037480;28;20074;-80
2021/12/06 00:44:33;;;;;;;18.10;9.65;;;6.30;99.90;;;;;;5055346;28;20060;-80
2021/12/06 00:46:59;;;;;;;24.17;11.13;;;6.30;99.90;;;;;;5055191;28;20036;-82
2021/12/06 00:49:25;;;;;;;21.85;10.60;;;6.30;99.90;;;;;;5055946;28;20021;-80
2021/12/06 00:51:50;;;;;;;19.77;11.07;;;6.30;99.90;;;;;;5037438;28;20531;-80
2021/12/06 00:54:16;;;;;;;21.60;10.60;;;6.30;99.90;;;;;;5037806;28;20048;-79
2021/12/06 00:56:42;;;;;;;21.58;10.23;;;6.30;99.90;;;;;;5055280;28;20033;-79
2021/12/06 00:59:08;;;;;;;20.88;11.35;;;6.30;99.90;;;;;;5036982;28;20025;-81
2021/12/06 01:01:34;;;;;;;24.58;11.13;;;6.30;99.90;;;;;;5037258;28;20024;-80
2021/12/06 01:04:00;;;;;;;24.27;11.52;;;6.30;99.90;;;;;;5054800;28;20025;-80
2021/12/06 01:06:26;;;;;;;20.00;10.68;;;6.30;99.90;;;;;;5036785;28;20025;-80
2021/12/06 01:08:52;;;;;;;20.58;10.95;;;6.30;99.90;;;;;;5054851;28;20055;-80
2021/12/06 01:11:18;;;;;;;26.45;11.77;;;6.20;99.90;;;;;;5054562;28;20029;-81
2021/12/06 01:13:43;;;;;;;21.92;11.35;;;6.30;99.90;;;;;;5036851;28;20070;-80
2021/12/06 01:16:10;;;;;;;21.27;11.10;;;6.30;99.90;;;;;;5054547;28;20331;-80
2021/12/06 01:18:36;;;;;;;26.08;11.65;;;6.30;99.90;;;;;;5054433;28;20025;-80
2021/12/06 01:21:13;;;;;;;23.75;12.07;;;6.30;99.90;;;;;;5036525;28;20021;-80
2021/12/06 01:26:42;;;;;;;22.58;11.32;;;6.30;99.90;;;;;;5054336;28;20037;-76
2021/12/06 01:39:50;;;;;;;23.48;11.65;;;6.30;99.90;;;;;;5053974;28;20043;-74
2021/12/06 01:42:16;;;;;;;26.58;12.48;;;6.30;99.90;;;;;;5054123;28;20033;-75
2021/12/06 01:44:45;;;;;;;24.77;10.73;;;6.30;99.90;;;;;;5053739;28;20068;-74
2021/12/06 01:47:18;;;;;;;21.42;9.95;;;6.30;99.90;;;;;;5036044;28;20021;-74
2021/12/06 01:49:52;;;;;;;25.60;12.02;;;6.30;99.90;;;;;;5053992;28;20115;-74
2021/12/06 01:52:33;;;;;;;22.92;12.20;;;6.30;99.90;;;;;;5053739;28;20087;-74
2021/12/06 01:54:59;;;;;;;25.95;12.00;;;6.30;99.90;;;;;;5053708;28;20017;-74
2021/12/06 01:57:27;;;;;;;24.60;12.02;;;6.40;99.90;;;;;;5053256;28;20108;-75
2021/12/06 01:59:53;;;;;;;24.98;11.35;;;6.40;99.90;;;;;;5053694;28;20059;-75
2021/12/06 02:02:20;;;;;;;26.17;11.93;;;6.30;99.90;;;;;;5053564;28;20025;-75
2021/12/06 02:04:46;;;;;;;30.10;12.35;;;6.30;99.90;;;;;;5053532;28;20536;-75
2021/12/06 02:07:15;;;;;;;26.23;12.55;;;6.40;99.90;;;;;;5035321;28;20108;-75
2021/12/06 02:09:46;;;;;;;28.15;12.80;;;6.30;99.90;;;;;;5053250;28;20021;-75
2021/12/06 02:12:12;;;;;;;27.27;12.68;;;6.30;99.90;;;;;;5036296;28;20021;-75
2021/12/06 02:17:25;;;;;;;27.73;12.90;;;6.30;99.90;;;;;;5053249;28;20116;-75
2021/12/06 02:20:02;;;;;;;26.60;12.70;;;6.30;99.90;;;;;;5053815;28;20087;-75
2021/12/06 02:22:34;;;;;;;34.47;13.05;;;6.30;99.90;;;;;;5035974;28;20140;-75
2021/12/06 02:25:01;;;;;;;32.40;13.63;;;6.30;99.90;;;;;;5053265;28;20029;-75
2021/12/06 02:27:28;;;;;;;29.15;12.73;;;6.40;99.90;;;;;;5053013;28;20067;-75
2021/12/06 02:29:57;;;;;;;28.63;12.73;;;6.30;99.90;;;;;;5053050;28;20024;-75
2021/12/06 02:32:23;;;;;;;29.92;12.93;;;6.40;99.90;;;;;;5053159;28;20024;-75
2021/12/06 02:34:53;;;;;;;29.55;12.77;;;6.30;99.90;;;;;;5053036;28;20027;-75
2021/12/06 02:37:24;;;;;;;28.10;12.40;;;6.30;99.90;;;;;;5035024;28;20021;-75
2021/12/06 02:39:52;;;;;;;31.20;13.15;;;6.30;99.90;;;;;;5053057;28;20044;-75
2021/12/06 02:42:18;;;;;;;28.75;12.25;;;6.30;99.90;;;;;;5052813;28;20063;-75
2021/12/06 02:44:45;;;;;;;34.13;14.20;;;6.30;99.90;;;;;;5034863;28;20096;-75
2021/12/06 02:47:11;;;;;;;33.65;12.82;;;6.30;99.90;;;;;;5052934;28;20135;-75
2021/12/06 02:49:37;;;;;;;28.50;13.57;;;6.30;99.90;;;;;;5052729;28;20069;-75
2021/12/06 02:52:05;;;;;;;28.70;12.05;;;6.30;99.90;;;;;;5052557;28;20060;-75
2021/12/06 02:54:31;;;;;;;31.42;13.27;;;6.30;99.90;;;;;;5035591;28;20070;-75
2021/12/06 02:59:37;;;;;;;26.98;13.52;;;6.30;99.90;;;;;;5053260;28;20029;-75
2021/12/06 03:02:06;;;;;;;27.80;12.63;;;6.30;99.90;;;;;;5034855;28;20017;-75
2021/12/06 03:04:33;;;;;;;26.67;13.68;;;6.30;99.90;;;;;;5053056;28;20025;-75
2021/12/06 03:06:59;;;;;;;28.92;12.70;;;6.30;99.90;;;;;;5052665;28;20025;-75
2021/12/06 03:09:29;;;;;;;28.38;13.02;;;6.30;99.90;;;;;;5052595;28;20028;-75
2021/12/06 03:12:13;;;;;;;29.90;12.93;;;6.30;99.90;;;;;;5034800;28;20025;-75
2021/12/06 03:14:43;;;;;;;28.05;12.10;;;6.30;99.90;;;;;;5052621;28;20075;-75
2021/12/06 03:17:12;;;;;;;30.58;12.95;;;6.30;99.90;;;;;;5035487;28;20118;-75
2021/12/06 03:19:39;;;;;;;28.35;12.25;;;6.30;99.90;;;;;;5052455;28;20045;-75
2021/12/06 03:22:08;;;;;;;31.42;13.35;;;6.30;99.90;;;;;;5056521;28;20094;-75
2021/12/06 03:24:33;;;;;;;33.15;13.20;;;6.30;99.90;;;;;;5056019;28;20122;-75
2021/12/06 03:26:59;;;;;;;28.10;12.35;;;6.30;99.90;;;;;;5056465;28;20484;-75
2021/12/06 03:29:27;;;;;;;30.40;12.85;;;6.30;99.90;;;;;;5038417;28;20118;-76
2021/12/06 03:31:53;;;;;;;34.53;14.95;;;6.30;99.90;;;;;;5056827;28;20021;-75
2021/12/06 03:34:19;;;;;;;29.88;12.52;;;6.30;99.90;;;;;;5056480;28;20025;-75
2021/12/06 03:36:46;;;;;;;32.10;13.10;;;6.30;99.90;;;;;;5056610;28;20104;-75
2021/12/06 03:39:23;;;;;;;31.35;13.50;;;6.30;99.90;;;;;;5056542;28;20029;-75
2021/12/06 03:41:50;;;;;;;31.67;13.98;;;6.30;99.90;;;;;;5056776;28;20458;-75
2021/12/06 03:44:18;;;;;;;29.60;14.48;;;6.30;99.90;;;;;;5056170;28;20035;-75
2021/12/06 03:46:43;;;;;;;34.92;14.50;;;6.30;99.90;;;;;;5056051;28;20032;-75
2021/12/06 03:49:14;;;;;;;34.67;13.77;;;6.30;99.90;;;;;;5038167;28;20420;-75
2021/12/06 03:51:41;;;;;;;34.22;13.80;;;6.30;99.90;;;;;;5056606;28;20052;-75
2021/12/06 03:54:07;;;;;;;29.48;12.50;;;6.30;99.90;;;;;;5056031;28;20513;-75
2021/12/06 03:56:38;;;;;;;32.30;14.52;;;6.30;99.90;;;;;;5055851;28;20067;-75
2021/12/06 03:59:04;;;;;;;29.52;12.13;;;6.40;99.90;;;;;;5056037;28;20108;-75
2021/12/06 04:01:31;;;;;;;29.75;13.40;;;6.40;99.90;;;;;;5055529;28;20159;-75
2021/12/06 04:03:58;;;;;;;33.03;14.55;;;6.40;99.90;;;;;;5038374;28;20369;-75
2021/12/06 04:06:23;;;;;;;29.88;13.05;;;6.30;99.90;;;;;;5056283;28;20550;-76
2021/12/06 04:08:49;;;;;;;35.17;13.98;;;6.30;99.90;;;;;;5055897;28;20135;-75
2021/12/06 04:11:16;;;;;;;31.02;13.65;;;6.30;99.90;;;;;;5037795;28;20025;-75
2021/12/06 04:13:41;;;;;;;34.78;14.00;;;6.40;99.90;;;;;;5037726;28;20119;-75
2021/12/06 04:16:07;;;;;;;30.92;13.48;;;6.30;99.90;;;;;;5055505;28;20109;-75
2021/12/06 04:18:33;;;;;;;37.33;14.23;;;6.30;99.90;;;;;;5055491;28;20031;-75
2021/12/06 04:20:59;;;;;;;28.23;11.85;;;6.30;99.90;;;;;;5055486;28;20021;-75
2021/12/06 04:23:25;;;;;;;31.90;13.85;;;6.30;99.90;;;;;;5055369;28;20029;-75
2021/12/06 04:25:51;;;;;;;33.67;13.23;;;6.30;99.90;;;;;;5037466;28;20051;-75
2021/12/06 04:28:19;;;;;;;33.50;14.38;;;6.30;99.90;;;;;;5037637;28;20449;-75
2021/12/06 04:30:46;;;;;;;34.15;14.07;;;6.30;99.90;;;;;;5054765;28;20017;-75
2021/12/06 04:33:13;;;;;;;28.73;12.95;;;6.20;99.90;;;;;;5037299;28;20382;-76
2021/12/06 04:35:40;;;;;;;30.75;12.63;;;6.30;99.90;;;;;;5037181;28;20064;-76
2021/12/06 04:38:07;;;;;;;30.52;13.20;;;6.30;99.90;;;;;;5055479;28;20146;-77
2021/12/06 04:40:33;;;;;;;29.15;12.98;;;6.30;99.90;;;;;;5037903;28;20163;-77
2021/12/06 04:42:59;;;;;;;31.05;13.50;;;6.30;99.90;;;;;;5037069;28;20486;-76
2021/12/06 04:45:25;;;;;;;35.42;13.30;;;6.30;99.90;;;;;;5036978;28;20423;-76
2021/12/06 04:47:51;;;;;;;28.13;12.75;;;6.30;99.90;;;;;;5054972;28;20031;-76
2021/12/06 04:50:19;;;;;;;30.50;12.82;;;6.30;99.90;;;;;;5055080;28;20053;-76
2021/12/06 04:52:46;;;;;;;32.08;13.73;;;6.20;99.90;;;;;;5037569;28;20017;-76
2021/12/06 04:55:30;;;;;;;31.52;12.68;;;6.20;99.90;;;;;;5055092;28;20021;-76
2021/12/06 04:57:55;;;;;;;32.30;14.25;;;6.20;99.90;;;;;;5054564;28;20021;-76
2021/12/06 05:00:46;;;;;;;33.95;14.02;;;6.20;99.90;;;;;;5054676;28;20100;-76
2021/12/06 05:03:12;;;;;;;26.60;12.23;;;6.10;99.90;;;;;;5054704;28;20032;-76
2021/12/06 05:05:49;;;;;;;31.88;13.15;;;6.10;99.90;;;;;;5054611;28;20029;-76
2021/12/06 05:08:37;;;;;;;35.75;13.60;;;6.10;99.90;;;;;;5054642;28;20052;-76
2021/12/06 05:11:05;;;;;;;34.70;14.43;;;6.00;99.90;;;;;;5054956;28;20041;-76
2021/12/06 05:13:32;;;;;;;30.42;13.77;;;6.00;99.90;;;;;;5054420;28;20040;-76
2021/12/06 05:15:58;;;;;;;36.78;14.00;;;5.90;99.90;;;;;;5054497;28;20100;-77
2021/12/06 05:18:24;;;;;;;31.50;12.55;;;5.90;99.90;;;;;;5054990;28;20114;-76
2021/12/06 05:20:50;;;;;;;31.00;13.38;;;5.80;99.90;;;;;;5054187;28;20079;-76
2021/12/06 05:23:18;;;;;;;33.67;14.00;;;5.80;99.90;;;;;;5054213;28;20051;-76
2021/12/06 05:25:43;;;;;;;33.42;13.90;;;5.70;99.90;;;;;;5053890;28;20476;-79
2021/12/06 05:28:09;;;;;;;32.35;13.38;;;5.70;99.90;;;;;;5036449;28;20025;-79
2021/12/06 05:30:38;;;;;;;32.38;14.73;;;5.70;99.90;;;;;;5054458;28;20021;-79
2021/12/06 05:33:06;;;;;;;40.10;15.55;;;5.60;99.90;;;;;;5036178;28;20056;-80
2021/12/06 05:35:32;;;;;;;37.42;14.40;;;5.60;99.90;;;;;;5035927;28;20021;-80
2021/12/06 05:37:59;;;;;;;32.88;13.02;;;5.50;99.90;;;;;;5053923;28;20038;-80
2021/12/06 05:40:29;;;;;;;30.75;13.68;;;5.50;99.90;;;;;;5035929;28;20021;-80
2021/12/06 05:42:56;;;;;;;32.72;14.77;;;5.50;99.90;;;;;;5052809;28;20029;-80
2021/12/06 05:45:25;;;;;;;32.50;14.60;;;5.50;99.90;;;;;;5053919;28;20021;-80
2021/12/06 05:47:51;;;;;;;31.13;12.82;;;5.40;99.90;;;;;;5035732;28;20055;-81
2021/12/06 05:50:18;;;;;;;30.13;12.88;;;5.40;99.90;;;;;;5035930;28;20084;-79
2021/12/06 05:52:44;;;;;;;30.08;12.20;;;5.40;99.90;;;;;;5053607;28;20027;-80
2021/12/06 05:55:10;;;;;;;30.60;12.48;;;5.40;99.90;;;;;;5054199;28;20025;-80
2021/12/06 05:57:37;;;;;;;31.38;12.48;;;5.40;99.90;;;;;;5036353;28;20333;-80
2021/12/06 06:00:05;;;;;;;32.53;14.40;;;5.40;99.90;;;;;;5053679;28;20469;-80
2021/12/06 06:02:31;;;;;;;28.80;12.43;;;5.40;99.90;;;;;;5053394;28;20028;-81
2021/12/06 06:04:57;;;;;;;32.95;12.55;;;5.50;99.90;;;;;;5053993;28;20033;-80
2021/12/06 06:07:22;;;;;;;35.30;13.85;;;5.50;99.90;;;;;;5053436;28;20033;-78
2021/12/06 06:09:48;;;;;;;31.15;13.90;;;5.50;99.90;;;;;;5053346;28;20025;-77
2021/12/06 06:12:14;;;;;;;28.73;12.48;;;5.50;99.90;;;;;;5053383;28;20024;-77
2021/12/06 06:14:39;;;;;;;30.60;14.75;;;5.60;99.90;;;;;;5054252;28;20029;-79
2021/12/06 06:17:13;;;;;;;32.83;13.13;;;5.60;99.90;;;;;;5035697;28;20024;-79
2021/12/06 06:19:44;;;;;;;33.00;14.38;;;5.70;99.90;;;;;;5035987;28;20024;-79
2021/12/06 06:22:10;;;;;;;35.85;13.95;;;5.70;99.90;;;;;;5055522;28;20022;-78
2021/12/06 06:24:35;;;;;;;31.35;13.98;;;5.70;99.90;;;;;;5053779;28;20029;-79
2021/12/06 06:27:01;;;;;;;31.05;12.77;;;5.80;99.90;;;;;;5035835;28;20021;-79
2021/12/06 06:29:27;;;;;;;31.20;12.52;;;5.80;99.90;;;;;;5054281;28;20504;-79
2021/12/06 06:31:53;;;;;;;32.85;14.25;;;5.80;99.90;;;;;;5053546;28;20029;-79
2021/12/06 06:34:19;;;;;;;33.88;15.15;;;5.80;99.90;;;;;;5053708;28;20147;-79
2021/12/06 06:36:44;;;;;;;35.28;14.32;;;5.80;99.90;;;;;;5055830;28;20089;-79
2021/12/06 06:39:10;;;;;;;34.15;14.52;;;5.90;99.90;;;;;;5050434;28;20093;-79
2021/12/06 06:41:36;;;;;;;28.13;13.75;;;5.80;99.90;;;;;;5069322;28;20055;-79
2021/12/06 06:44:03;;;;;;;32.05;14.05;;;5.80;99.90;;;;;;5070108;28;20366;-79
2021/12/06 06:46:29;;;;;;;39.55;14.32;;;5.90;99.90;;;;;;5061932;28;20032;-80
2021/12/06 06:48:56;;;;;;;37.75;14.35;;;5.90;99.90;;;;;;5039815;28;20454;-79
2021/12/06 06:51:23;;;;;;;31.73;14.98;;;5.90;99.90;;;;;;5053902;28;20045;-79
2021/12/06 06:53:49;;;;;;;31.02;14.43;;;5.90;99.90;;;;;;5053146;28;20087;-79
2021/12/06 06:56:15;;;;;;;31.77;12.75;;;5.90;99.90;;;;;;5053078;28;20025;-79
2021/12/06 06:58:40;;;;;;;30.52;13.00;;;5.90;99.90;;;;;;5052780;28;20409;-79
2021/12/06 07:01:06;;;;;;;34.50;14.25;;;5.90;99.90;;;;;;5053125;28;20025;-79
2021/12/06 07:03:32;;;;;;;28.92;15.02;;;5.80;99.90;;;;;;5035193;28;20415;-79
2021/12/06 07:06:02;;;;;;;38.75;14.75;;;5.80;99.90;;;;;;5053176;28;20060;-80
2021/12/06 07:08:28;;;;;;;32.03;12.73;;;5.80;99.90;;;;;;5053023;28;20028;-79
2021/12/06 07:10:55;;;;;;;28.80;13.48;;;5.80;99.90;;;;;;5035067;28;20271;-80
2021/12/06 07:13:22;;;;;;;29.95;13.70;;;5.80;99.90;;;;;;5052774;28;20025;-80
2021/12/06 07:15:49;;;;;;;36.13;13.75;;;5.80;99.90;;;;;;5034910;28;20060;-80
2021/12/06 07:18:16;;;;;;;38.40;14.23;;;5.80;99.90;;;;;;5035071;28;20103;-80
2021/12/06 07:20:42;;;;;;;33.83;15.32;;;5.80;99.90;;;;;;5052594;28;20025;-80
2021/12/06 07:23:08;;;;;;;33.88;15.90;;;5.80;99.90;;;;;;5052619;28;20062;-80
2021/12/06 07:25:34;;;;;;;33.55;14.93;;;5.90;99.90;;;;;;5034720;28;20036;-80
2021/12/06 07:28:01;;;;;;;38.22;16.58;;;5.80;99.90;;;;;;5052632;28;20468;-80
2021/12/06 07:30:27;;;;;;;30.08;14.18;;;5.80;99.90;;;;;;5034782;28;20473;-79
2021/12/06 07:32:54;;;;;;;37.72;15.32;;;5.80;99.90;;;;;;5035508;28;20036;-80
2021/12/06 07:35:21;;;;;;;37.67;15.45;;;5.80;99.90;;;;;;5034896;28;20318;-80
2021/12/06 07:37:47;;;;;;;30.75;14.13;;;5.80;99.90;;;;;;5052419;28;20108;-80
2021/12/06 07:40:14;;;;;;;30.58;12.75;;;5.80;99.90;;;;;;5052951;28;20434;-79
2021/12/06 07:42:40;;;;;;;25.33;12.30;;;5.80;99.90;;;;;;5052338;28;20044;-80
2021/12/06 07:45:07;;;;;;;31.35;13.10;;;5.80;99.90;;;;;;5034586;28;20025;-80
2021/12/06 07:47:37;;;;;;;29.20;12.15;;;5.80;99.90;;;;;;5052333;28;20048;-80
2021/12/06 07:50:04;;;;;;;29.83;13.57;;;5.80;99.90;;;;;;5034273;28;20436;-80
2021/12/06 07:52:30;;;;;;;29.60;14.15;;;5.80;99.90;;;;;;5052554;28;20033;-80
2021/12/06 07:54:59;;;;;;;25.05;12.85;;;5.80;99.90;;;;;;5034723;28;20033;-80
2021/12/06 07:57:25;;;;;;;28.65;12.63;;;5.80;99.90;;;;;;5034473;28;20483;-80
2021/12/06 07:59:51;;;;;;;26.17;12.70;;;5.70;99.90;;;;;;5051941;28;20059;-80
2021/12/06 08:02:16;;;;;;;25.83;11.98;;;5.70;99.90;;;;;;5052022;28;20056;-80
2021/12/06 08:04:42;;;;;;;28.13;11.30;;;5.70;99.90;;;;;;5052150;28;20029;-80
2021/12/06 08:07:08;;;;;;;26.33;12.70;;;5.80;99.90;;;;;;5054796;28;20063;-80
2021/12/06 08:09:33;;;;;;;30.80;12.48;;;5.70;99.90;;;;;;5038120;28;20031;-80
2021/12/06 08:11:59;;;;;;;31.67;14.10;;;5.70;99.90;;;;;;5038046;28;20032;-80
2021/12/06 08:14:25;;;;;;;26.73;13.10;;;5.70;99.90;;;;;;5038182;28;20021;-79
2021/12/06 08:16:51;;;;;;;34.90;14.85;;;5.70;99.90;;;;;;5055569;28;20025;-79
2021/12/06 08:19:17;;;;;;;30.48;14.60;;;5.70;99.90;;;;;;5055785;28;20130;-79
2021/12/06 08:21:43;;;;;;;32.88;13.68;;;5.70;99.90;;;;;;5037736;28;20017;-80
2021/12/06 08:24:09;;;;;;;34.78;14.98;;;5.70;99.90;;;;;;5055393;28;20102;-79
2021/12/06 08:26:40;;;;;;;39.03;17.13;;;5.70;99.90;;;;;;5038298;28;20021;-80
2021/12/06 08:29:08;;;;;;;32.72;13.65;;;5.70;99.80;;;;;;5038148;28;20021;-80
2021/12/06 08:31:37;;;;;;;37.05;15.60;;;5.70;99.90;;;;;;5055098;28;20438;-79
2021/12/06 08:34:03;;;;;;;27.70;12.38;;;5.70;99.90;;;;;;5037278;28;20109;-78
2021/12/06 08:36:29;;;;;;;32.08;13.65;;;5.70;99.90;;;;;;5055061;28;20416;-79
2021/12/06 08:38:55;;;;;;;24.88;13.13;;;5.70;99.90;;;;;;5038144;28;20037;-79
2021/12/06 08:41:25;;;;;;;32.67;12.98;;;5.70;99.80;;;;;;5055380;28;20025;-79
2021/12/06 08:43:53;;;;;;;32.88;14.45;;;5.80;99.80;;;;;;5056119;28;20056;-78
2021/12/06 08:46:28;;;;;;;25.75;12.25;;;5.80;99.80;;;;;;5056234;28;20056;-80
2021/12/06 08:48:55;;;;;;;25.00;12.43;;;5.80;99.80;;;;;;5055640;28;20033;-80
2021/12/06 08:51:32;;;;;;;24.65;13.50;;;5.70;99.70;;;;;;5054924;28;20552;-80
2021/12/06 08:54:00;;;;;;;29.38;13.15;;;5.70;99.70;;;;;;5055005;28;20045;-79
2021/12/06 08:56:27;;;;;;;24.75;12.38;;;5.70;99.90;;;;;;5037047;28;20044;-79
2021/12/06 08:58:53;;;;;;;30.13;14.35;;;5.70;99.70;;;;;;5054927;28;20507;-79
2021/12/06 09:01:20;;;;;;;31.52;15.30;;;5.70;99.70;;;;;;5037648;28;20401;-79
2021/12/06 09:03:46;;;;;;;26.65;13.35;;;5.70;99.60;;;;;;5054591;28;20021;-79
2021/12/06 09:06:13;;;;;;;28.80;14.43;;;5.70;99.60;;;;;;5054775;28;20059;-79
2021/12/06 09:08:41;;;;;;;24.08;11.63;;;5.80;99.60;;;;;;5037285;28;20025;-79
2021/12/06 09:11:08;;;;;;;25.63;13.70;;;5.70;99.60;;;;;;5055146;28;20017;-80
2021/12/06 09:13:35;;;;;;;24.02;12.02;;;5.80;99.60;;;;;;5055248;28;20025;-80
2021/12/06 09:16:04;;;;;;;24.38;13.35;;;5.80;99.60;;;;;;5036524;28;20025;-80
2021/12/06 09:18:34;;;;;;;22.63;12.95;;;5.80;99.50;;;;;;5053583;28;20053;-80
2021/12/06 09:21:00;;;;;;;22.05;12.15;;;5.80;99.50;;;;;;5054464;28;20476;-80
2021/12/06 09:23:26;;;;;;;24.67;13.40;;;5.70;99.50;;;;;;5036839;28;20119;-80
2021/12/06 09:25:52;;;;;;;22.58;11.23;;;5.80;99.50;;;;;;5054606;28;20112;-80
2021/12/06 09:28:19;;;;;;;26.77;12.95;;;5.70;99.50;;;;;;5036459;28;20029;-80
2021/12/06 09:30:45;;;;;;;22.73;11.82;;;5.70;99.50;;;;;;5054292;28;20052;-80
2021/12/06 09:33:14;;;;;;;29.05;13.02;;;5.70;99.50;;;;;;5036535;28;20024;-80
2021/12/06 09:35:44;;;;;;;27.30;12.95;;;5.70;99.50;;;;;;5054340;28;20078;-80
2021/12/06 09:38:12;;;;;;;23.15;11.80;;;5.70;99.50;;;;;;5036259;28;20024;-79
2021/12/06 09:40:40;;;;;;;28.02;13.35;;;5.60;99.50;;;;;;5054181;28;20025;-80
2021/12/06 09:43:09;;;;;;;25.02;12.55;;;5.70;99.50;;;;;;5054049;28;20036;-80
2021/12/06 09:45:39;;;;;;;27.98;13.55;;;5.70;99.50;;;;;;5036211;28;20431;-80
2021/12/06 09:48:05;;;;;;;22.65;11.63;;;5.70;99.50;;;;;;5054181;28;20084;-80
2021/12/06 09:50:40;;;;;;;22.85;11.27;;;5.70;99.50;;;;;;5053710;28;20049;-79
2021/12/06 09:53:09;;;;;;;22.80;11.07;;;5.70;99.50;;;;;;5036138;28;20029;-80
2021/12/06 09:55:36;;;;;;;19.67;10.32;;;5.70;99.60;;;;;;5054741;28;20495;-80
2021/12/06 09:58:04;;;;;;;20.33;10.52;;;5.70;99.50;;;;;;5035798;28;20469;-80
2021/12/06 10:00:34;;;;;;;24.48;11.93;;;5.70;99.50;;;;;;5053567;28;20457;-80
2021/12/06 10:03:00;;;;;;;27.75;12.95;;;5.80;99.50;;;;;;5054267;28;20063;-80
2021/12/06 10:05:29;;;;;;;23.42;11.23;;;5.80;99.50;;;;;;5053695;28;20065;-80
2021/12/06 10:07:56;;;;;;;26.38;11.80;;;5.80;99.50;;;;;;5053571;28;20029;-79
2021/12/06 10:10:23;;;;;;;28.35;13.68;;;5.80;99.40;;;;;;5053538;28;20036;-79
2021/12/06 10:12:52;;;;;;;25.88;12.02;;;5.80;99.40;;;;;;5035966;28;20021;-80
2021/12/06 10:15:19;;;;;;;21.95;11.13;;;5.80;99.40;;;;;;5036033;28;20055;-79
2021/12/06 10:17:45;;;;;;;25.45;12.52;;;5.80;99.50;;;;;;5035653;28;20047;-80
2021/12/06 10:20:11;;;;;;;24.88;11.65;;;5.80;99.40;;;;;;5054344;28;20032;-80
2021/12/06 10:22:37;;;;;;;26.98;11.85;;;5.80;99.40;;;;;;5054084;28;20044;-80
2021/12/06 10:25:05;;;;;;;22.75;11.18;;;5.80;99.40;;;;;;5053543;28;20127;-79
2021/12/06 10:27:30;;;;;;;22.40;11.25;;;5.80;99.40;;;;;;5053441;28;20461;-79
2021/12/06 10:30:02;;;;;;;23.73;11.20;;;5.80;99.40;;;;;;5052984;28;20028;-79
2021/12/06 10:32:31;;;;;;;28.45;12.98;;;5.80;99.40;;;;;;5035151;28;20031;-79
2021/12/06 10:35:07;;;;;;;21.98;11.38;;;5.80;99.40;;;;;;5053288;28;20511;-80
2021/12/06 10:37:45;;;;;;;27.92;12.48;;;5.90;99.40;;;;;;5053072;28;20017;-80
2021/12/06 10:40:18;;;;;;;26.35;13.55;;;5.90;99.30;;;;;;5035261;28;20021;-79
2021/12/06 10:42:47;;;;;;;29.70;13.52;;;5.90;99.30;;;;;;5054003;28;20446;-80
2021/12/06 10:45:26;;;;;;;28.35;12.25;;;5.90;99.30;;;;;;5054034;28;20025;-79
2021/12/06 10:48:04;;;;;;;25.63;12.80;;;5.90;99.30;;;;;;5053519;28;20017;-80
2021/12/06 10:50:30;;;;;;;26.45;13.38;;;6.00;99.30;;;;;;5035022;28;20497;-79
2021/12/06 10:52:59;;;;;;;33.88;13.60;;;5.90;99.30;;;;;;5034790;28;20087;-80
2021/12/06 10:55:28;;;;;;;30.42;14.43;;;6.00;99.30;;;;;;5053084;28;20465;-79
2021/12/06 10:58:00;;;;;;;38.22;15.85;;;5.90;99.30;;;;;;5053282;28;20223;-80
2021/12/06 11:00:31;;;;;;;26.85;11.32;;;5.90;99.40;;;;;;5053717;28;20366;-79
2021/12/06 11:02:57;;;;;;;32.33;13.00;;;6.00;99.40;;;;;;5054512;28;20131;-78
2021/12/06 11:05:26;;;;;;;34.67;13.82;;;6.00;99.40;;;;;;5035648;28;20033;-79
2021/12/06 11:08:13;;;;;;;24.83;13.70;;;6.00;99.40;;;;;;5035031;28;20483;-80
2021/12/06 11:10:49;;;;;;;28.00;14.10;;;6.00;99.40;;;;;;5035124;28;20047;-79
2021/12/06 11:13:23;;;;;;;26.40;13.90;;;6.10;99.40;;;;;;5052770;28;20025;-79
2021/12/06 11:16:01;;;;;;;27.38;13.60;;;6.10;99.40;;;;;;5053278;28;20453;-79
2021/12/06 11:18:50;;;;;;;25.35;13.77;;;6.10;99.40;;;;;;5035729;28;20049;-79
2021/12/06 11:21:24;;;;;;;25.27;12.02;;;6.20;99.40;;;;;;5035001;28;20033;-79
2021/12/06 11:24:06;;;;;;;25.65;12.40;;;6.20;99.30;;;;;;5035722;28;20039;-79
2021/12/06 11:26:34;;;;;;;33.88;16.23;;;6.20;99.20;;;;;;5035702;28;20087;-79
2021/12/06 11:29:32;;;;;;;37.53;17.77;;;6.20;99.10;;;;;;5052883;28;20070;-79
2021/12/06 11:32:08;;;;;;;31.20;14.38;;;6.20;99.10;;;;;;5052077;28;20036;-79
2021/12/06 11:34:37;;;;;;;30.17;14.93;;;6.20;99.10;;;;;;5035484;28;20029;-79
2021/12/06 11:37:09;;;;;;;27.35;14.73;;;6.20;99.10;;;;;;5034782;28;20029;-80
2021/12/06 11:39:35;;;;;;;28.98;13.88;;;6.20;99.10;;;;;;5034865;28;20502;-79
2021/12/06 11:42:01;;;;;;;27.63;13.27;;;6.30;99.10;;;;;;5055285;28;20029;-79
2021/12/06 11:44:42;;;;;;;24.85;11.85;;;6.30;99.10;;;;;;5056445;28;20033;-79
2021/12/06 11:47:11;;;;;;;28.98;13.98;;;6.30;99.10;;;;;;5056967;28;20154;-80
2021/12/06 11:50:04;;;;;;;29.70;12.57;;;6.20;99.10;;;;;;5056206;28;20375;-79
2021/12/06 11:52:33;;;;;;;28.85;11.95;;;6.20;99.20;;;;;;5054387;28;20056;-79
2021/12/06 11:55:12;;;;;;;27.63;12.68;;;6.20;99.20;;;;;;5056699;28;20462;-79
2021/12/06 11:57:43;;;;;;;35.17;14.75;;;6.20;99.10;;;;;;5056217;28;20071;-79
2021/12/06 12:00:16;;;;;;;31.90;14.52;;;6.10;98.90;;;;;;5038430;28;20036;-79
2021/12/06 12:02:54;;;;;;;35.78;13.88;;;6.00;99.00;;;;;;5056214;28;20028;-79
2021/12/06 12:05:29;;;;;;;28.77;11.98;;;6.00;99.10;;;;;;5038575;28;20053;-79
2021/12/06 12:08:15;;;;;;;25.90;12.02;;;6.00;99.10;;;;;;5056066;28;20033;-79
2021/12/06 12:10:46;;;;;;;28.25;11.48;;;6.00;99.10;;;;;;5037866;28;20021;-79
2021/12/06 12:13:45;;;;;;;21.05;9.13;;;6.00;99.10;;;;;;5056022;28;20025;-80
2021/12/06 12:16:13;;;;;;;30.65;12.50;;;6.00;99.10;;;;;;5000994;28;20087;-79
2021/12/06 12:18:42;;;;;;;32.78;12.80;;;6.00;99.10;;;;;;5055925;28;20414;-80
2021/12/06 12:21:09;;;;;;;27.58;11.63;;;6.00;99.10;;;;;;5055866;28;20049;-80
2021/12/06 12:23:35;;;;;;;36.28;13.38;;;6.00;99.10;;;;;;5037976;28;20120;-80
2021/12/06 12:26:11;;;;;;;25.52;11.18;;;6.00;99.00;;;;;;5055960;28;20466;-80
2021/12/06 12:28:51;;;;;;;26.15;11.50;;;6.00;99.10;;;;;;5038009;28;20021;-80
2021/12/06 12:31:19;;;;;;;30.85;14.13;;;5.90;99.00;;;;;;5038026;28;20397;-80
2021/12/06 12:33:48;;;;;;;27.38;11.50;;;5.90;98.90;;;;;;5038796;28;20361;-79
2021/12/06 12:36:17;;;;;;;24.30;11.70;;;5.80;99.00;;;;;;5055726;28;20453;-80
2021/12/06 12:38:46;;;;;;;27.13;11.13;;;5.80;99.00;;;;;;5038321;28;20021;-80
2021/12/06 12:41:15;;;;;;;23.63;10.88;;;5.80;99.10;;;;;;5038633;28;20077;-80
2021/12/06 12:43:45;;;;;;;24.85;9.98;;;5.80;99.00;;;;;;5056397;28;20036;-80
2021/12/06 12:46:21;;;;;;;29.52;12.15;;;5.80;99.10;;;;;;5058026;28;20032;-80
2021/12/06 12:48:54;;;;;;;23.42;10.63;;;5.80;99.00;;;;;;5064527;28;20059;-78
2021/12/06 12:51:30;;;;;;;25.65;11.18;;;5.80;99.00;;;;;;5076491;28;20069;-80
2021/12/06 12:54:07;;;;;;;27.50;12.00;;;5.80;99.20;;;;;;5076885;28;20033;-78
2021/12/06 12:56:42;;;;;;;23.98;10.65;;;5.70;98.90;;;;;;5059144;28;20108;-79
2021/12/06 12:59:42;;;;;;;23.15;11.60;;;5.70;98.90;;;;;;5055321;28;20024;-79
2021/12/06 13:02:20;;;;;;;26.10;11.98;;;5.70;98.80;;;;;;5037214;28;20025;-80
2021/12/06 13:04:57;;;;;;;28.42;12.40;;;5.70;98.80;;;;;;5055060;28;20029;-79
2021/12/06 13:07:50;;;;;;;27.63;11.15;;;5.70;98.80;;;;;;5037122;28;20031;-79